Time;durP1;ratioP1;P1;durP2;ratioP2;P2;SDS_P1;SDS_P2;PMS_P1;PMS_P2;Temp;Humidity;BMP_temperature;BMP_pressure;BME280_temperature;BME280_humidity;BME280_pressure;Samples;Min_cycle;Max_cycle;Signal;HPM_P1;HPM_P2
2022/12/11 00:03:04;;;;;;;5.73;4.13;;;;;;;-0.28;73.90;101242.00;6223797;28;20232;-71
2022/12/11 00:06:26;;;;;;;4.07;3.10;;;;;;;-0.16;74.13;101235.34;6227236;28;20241;-71
2022/12/11 00:09:47;;;;;;;5.73;3.77;;;;;;;-0.11;73.19;101231.63;6228513;28;20241;-71
2022/12/11 00:13:08;;;;;;;5.43;3.43;;;;;;;0.05;72.65;101230.97;6224172;28;20331;-72
2022/12/11 00:16:29;;;;;;;5.00;3.93;;;;;;;0.00;72.65;101234.69;6223715;28;20229;-72
2022/12/11 00:19:51;;;;;;;6.17;3.90;;;;;;;0.02;72.37;101228.47;6231969;28;20497;-72
2022/12/11 00:23:12;;;;;;;5.33;4.67;;;;;;;-0.03;72.82;101228.66;6233421;28;20228;-72
2022/12/11 00:26:33;;;;;;;5.97;4.17;;;;;;;-0.04;72.67;101227.78;6227070;28;20228;-72
2022/12/11 00:29:54;;;;;;;3.97;3.67;;;;;;;-0.06;72.08;101234.06;6230867;28;20224;-71
2022/12/11 00:33:16;;;;;;;6.13;3.83;;;;;;;-0.03;72.66;101224.22;6227168;28;20540;-71
2022/12/11 00:36:39;;;;;;;5.83;3.60;;;;;;;0.07;72.70;101234.44;6234923;28;20246;-72
2022/12/11 00:39:59;;;;;;;6.87;4.03;;;;;;;0.10;72.56;101226.38;6203384;28;20240;-71
2022/12/11 00:43:20;;;;;;;5.13;3.80;;;;;;;0.00;72.47;101231.19;6231219;28;20240;-72
2022/12/11 00:46:41;;;;;;;6.27;5.63;;;;;;;-0.09;73.14;101227.13;6233000;28;20223;-72
2022/12/11 00:50:02;;;;;;;4.30;3.87;;;;;;;-0.19;73.50;101232.84;6232175;28;20240;-72
2022/12/11 00:53:24;;;;;;;6.57;3.43;;;;;;;-0.29;73.06;101228.78;6224259;28;20663;-71
2022/12/11 00:56:45;;;;;;;6.07;5.47;;;;;;;-0.49;74.34;101231.34;6236059;28;20578;-72
2022/12/11 01:00:07;;;;;;;4.13;3.57;;;;;;;-0.56;73.97;101236.00;6196664;28;20225;-72
2022/12/11 01:03:28;;;;;;;3.90;3.03;;;;;;;-0.57;73.96;101234.28;6229310;28;20247;-72
2022/12/11 01:06:49;;;;;;;6.67;3.77;;;;;;;-0.52;73.71;101224.38;6217490;28;20228;-71
2022/12/11 01:10:24;;;;;;;3.83;3.23;;;;;;;-0.38;74.39;101219.44;6215252;28;20326;-71
2022/12/11 01:13:45;;;;;;;4.57;3.63;;;;;;;-0.55;73.93;101227.16;6233437;28;20224;-71
2022/12/11 01:17:06;;;;;;;5.13;4.50;;;;;;;-0.57;74.36;101226.34;6223750;28;20229;-71
2022/12/11 01:20:28;;;;;;;7.10;4.33;;;;;;;-0.41;73.70;101223.97;6195177;28;20745;-71
2022/12/11 01:23:49;;;;;;;7.00;6.37;;;;;;;-0.39;74.08;101227.41;6230082;28;20251;-70
2022/12/11 01:27:12;;;;;;;4.93;3.83;;;;;;;-0.34;74.28;101231.63;6225198;28;20240;-71
2022/12/11 01:30:33;;;;;;;8.23;5.30;;;;;;;-0.34;74.53;101236.06;6205839;28;20237;-71
2022/12/11 01:33:54;;;;;;;4.10;3.70;;;;;;;-0.34;74.80;101226.34;6234192;28;20235;-71
2022/12/11 01:37:15;;;;;;;7.23;4.73;;;;;;;-0.34;75.00;101231.63;6233384;28;20228;-72
2022/12/11 01:40:36;;;;;;;6.47;4.57;;;;;;;-0.46;75.16;101232.09;6217149;28;20655;-71
2022/12/11 01:44:04;;;;;;;6.40;4.67;;;;;;;-0.36;75.85;101241.44;6222055;28;20221;-71
2022/12/11 01:47:25;;;;;;;5.27;4.30;;;;;;;-0.44;76.51;101240.81;6230690;28;20229;-72
2022/12/11 01:50:50;;;;;;;7.47;5.17;;;;;;;-0.45;76.79;101241.78;6215277;28;20236;-72
2022/12/11 01:54:14;;;;;;;5.17;4.67;;;;;;;-0.47;76.90;101243.59;6220013;28;20245;-71
2022/12/11 01:57:36;;;;;;;5.17;4.67;;;;;;;-0.37;76.79;101241.47;6208169;28;20590;-71
2022/12/11 02:00:59;;;;;;;5.80;5.03;;;;;;;-0.34;77.22;101246.66;6214326;28;20233;-71
2022/12/11 02:04:21;;;;;;;6.70;4.77;;;;;;;-0.32;76.94;101237.75;6211887;28;20232;-71
2022/12/11 02:07:46;;;;;;;6.70;4.20;;;;;;;-0.58;76.96;101236.97;6227479;28;20259;-69
2022/12/11 02:11:15;;;;;;;8.27;4.30;;;;;;;-0.60;77.86;101238.81;6218075;28;20248;-71
2022/12/11 02:14:43;;;;;;;8.00;4.70;;;;;;;-0.53;77.68;101233.25;6220328;28;20233;-71
2022/12/11 02:18:14;;;;;;;8.20;5.17;;;;;;;-0.49;77.60;101239.28;6225933;28;20543;-71
2022/12/11 02:21:43;;;;;;;5.37;3.97;;;;;;;-0.43;77.49;101237.28;6207718;28;20236;-71
2022/12/11 02:25:15;;;;;;;5.70;5.00;;;;;;;-0.39;76.98;101230.06;6214200;28;20319;-71
2022/12/11 02:28:41;;;;;;;6.97;4.67;;;;;;;-0.40;77.02;101228.34;6227571;28;21126;-71
2022/12/11 02:32:09;;;;;;;6.57;4.13;;;;;;;-0.39;76.54;101228.28;6224810;28;20493;-71
2022/12/11 02:35:34;;;;;;;8.13;5.47;;;;;;;-0.55;76.93;101239.53;6216629;28;20232;-71
2022/12/11 02:38:58;;;;;;;4.33;3.93;;;;;;;-0.61;77.23;101243.28;6233031;28;20315;-71
2022/12/11 02:42:21;;;;;;;7.17;4.63;;;;;;;-0.53;77.88;101235.91;6230561;28;20233;-70
2022/12/11 02:45:46;;;;;;;6.77;5.73;;;;;;;-0.54;77.28;101225.38;6214247;28;20613;-71
2022/12/11 02:49:08;;;;;;;6.03;4.33;;;;;;;-0.58;77.65;101223.75;6222705;28;20223;-71
2022/12/11 02:52:30;;;;;;;5.30;4.77;;;;;;;-0.67;78.03;101221.47;6229617;28;20228;-70
2022/12/11 02:56:03;;;;;;;6.57;5.00;;;;;;;-0.70;78.01;101224.19;6220990;28;20306;-71
2022/12/11 02:59:30;;;;;;;6.40;5.80;;;;;;;-0.72;78.57;101226.03;6210463;28;20236;-70
2022/12/11 03:02:54;;;;;;;7.67;5.43;;;;;;;-0.73;78.59;101225.19;6218787;28;20235;-71
2022/12/11 03:06:19;;;;;;;6.77;5.13;;;;;;;-0.55;78.38;101221.88;6212789;28;20233;-71
2022/12/11 03:09:42;;;;;;;7.50;5.40;;;;;;;-0.54;78.24;101228.03;6216769;28;20273;-71
2022/12/11 03:13:04;;;;;;;9.40;6.13;;;;;;;-0.53;78.28;101225.31;6226849;28;20812;-70
2022/12/11 03:16:34;;;;;;;9.33;5.57;;;;;;;-0.63;78.47;101223.94;6201027;28;20590;-71
2022/12/11 03:20:04;;;;;;;7.23;4.43;;;;;;;-0.71;78.82;101223.38;6222621;28;20221;-71
2022/12/11 03:23:32;;;;;;;6.73;5.77;;;;;;;-0.74;79.17;101223.47;6225817;28;20227;-71
2022/12/11 03:26:57;;;;;;;5.63;5.03;;;;;;;-0.70;79.57;101227.72;6213959;28;20227;-71
2022/12/11 03:30:20;;;;;;;8.23;6.17;;;;;;;-0.63;78.72;101221.28;6202288;28;20237;-72
2022/12/11 03:33:44;;;;;;;6.27;5.03;;;;;;;-0.85;78.96;101223.84;6227358;28;20232;-71
2022/12/11 03:37:08;;;;;;;7.53;4.70;;;;;;;-0.69;79.06;101229.47;6232994;28;20255;-71
2022/12/11 03:40:33;;;;;;;7.60;5.13;;;;;;;-0.67;79.12;101224.97;6217524;28;20232;-70
2022/12/11 03:43:57;;;;;;;5.57;4.93;;;;;;;-0.59;78.79;101222.03;6231695;28;21663;-72
2022/12/11 03:47:21;;;;;;;4.97;4.43;;;;;;;-0.59;77.83;101214.97;6226966;28;20227;-70
2022/12/11 03:50:43;;;;;;;5.23;4.70;;;;;;;-0.67;78.73;101211.75;6218587;28;20236;-71
2022/12/11 03:54:05;;;;;;;5.67;5.07;;;;;;;-0.81;79.03;101222.81;6230782;28;20237;-71
2022/12/11 03:57:30;;;;;;;5.80;4.83;;;;;;;-0.75;78.80;101227.00;6232851;28;20221;-72
2022/12/11 04:00:51;;;;;;;6.53;4.77;;;;;;;-0.66;78.65;101218.75;6226940;28;20233;-71
2022/12/11 04:04:12;;;;;;;6.90;4.30;;;;;;;-0.74;78.75;101212.00;6233184;28;20228;-72
2022/12/11 04:07:33;;;;;;;6.27;5.10;;;;;;;-0.81;78.31;101221.94;6232741;28;20624;-71
2022/12/11 04:25:26;;;;;;;6.50;4.73;;;;;;;-0.81;79.32;101208.72;6226611;28;20976;-71
2022/12/11 04:28:49;;;;;;;7.40;4.90;;;;;;;-0.74;79.08;101206.72;6214206;28;20314;-71
2022/12/11 04:32:10;;;;;;;8.37;5.87;;;;;;;-0.68;78.85;101196.78;6234037;28;20232;-71
2022/12/11 04:35:30;;;;;;;7.87;4.53;;;;;;;-0.55;78.64;101202.47;6224222;28;20566;-71
2022/12/11 04:38:51;;;;;;;6.43;5.57;;;;;;;-0.57;78.60;101197.22;6230156;28;20228;-71
2022/12/11 04:42:12;;;;;;;5.70;4.17;;;;;;;-0.67;78.56;101202.94;6234761;28;20597;-71
2022/12/11 04:45:35;;;;;;;8.83;6.00;;;;;;;-0.67;78.98;101205.56;6230126;28;20232;-71
2022/12/11 04:48:56;;;;;;;5.77;5.13;;;;;;;-0.61;78.50;101205.34;6236430;28;20224;-71
2022/12/11 04:52:17;;;;;;;8.43;6.27;;;;;;;-0.52;78.12;101202.34;6228887;28;20228;-72
2022/12/11 04:55:39;;;;;;;5.03;4.53;;;;;;;-0.44;78.16;101206.41;6232637;28;20280;-71
2022/12/11 04:59:00;;;;;;;6.53;5.77;;;;;;;-0.49;78.14;101200.44;6221303;28;20280;-71
2022/12/11 05:02:22;;;;;;;7.00;5.00;;;;;;;-0.51;77.76;101202.28;6221780;28;20224;-71
2022/12/11 05:05:48;;;;;;;7.83;5.27;;;;;;;-0.48;77.29;101196.84;6227633;28;20233;-71
2022/12/11 05:09:11;;;;;;;6.53;4.37;;;;;;;-0.34;77.48;101193.69;6217336;28;20240;-70
2022/12/11 05:12:32;;;;;;;7.07;4.77;;;;;;;-0.36;77.47;101195.53;6226997;28;20252;-72
2022/12/11 05:15:53;;;;;;;6.83;5.30;;;;;;;-0.40;77.08;101199.22;6229251;28;20228;-71
2022/12/11 05:19:15;;;;;;;7.00;5.03;;;;;;;-0.46;77.03;101196.81;6212930;28;20228;-71
2022/12/11 05:22:37;;;;;;;6.53;5.13;;;;;;;-0.46;77.23;101195.00;6226539;28;20248;-70
2022/12/11 05:25:59;;;;;;;7.70;5.40;;;;;;;-0.52;76.74;101202.34;6214674;28;20224;-71
2022/12/11 05:29:20;;;;;;;8.20;5.37;;;;;;;-0.76;76.25;101203.25;6217493;28;20278;-71
2022/12/11 05:32:41;;;;;;;7.83;4.70;;;;;;;-1.03;76.59;101203.38;6221182;28;20232;-71
2022/12/11 05:36:04;;;;;;;7.83;5.37;;;;;;;-0.81;75.02;101198.13;6217008;28;20323;-71
2022/12/11 05:39:25;;;;;;;4.30;3.90;;;;;;;-0.84;73.53;101195.63;6217586;28;20238;-71
2022/12/11 05:42:46;;;;;;;9.63;6.70;;;;;;;-0.95;73.08;101195.16;6225294;28;20224;-71
2022/12/11 05:46:08;;;;;;;9.07;5.73;;;;;;;-1.15;72.09;101189.72;6212722;28;20504;-71
2022/12/11 05:49:29;;;;;;;8.03;5.30;;;;;;;-1.06;72.97;101202.59;6217689;28;20256;-71
2022/12/11 05:52:51;;;;;;;7.50;5.10;;;;;;;-0.87;72.25;101201.00;6224701;28;20224;-70
2022/12/11 05:56:13;;;;;;;9.13;6.40;;;;;;;-1.06;73.04;101205.25;6215597;28;20229;-71
2022/12/11 05:59:34;;;;;;;6.77;4.40;;;;;;;-0.96;74.14;101193.44;6220266;28;20239;-70
2022/12/11 06:02:55;;;;;;;7.57;5.27;;;;;;;-1.12;72.59;101187.81;6217482;28;20232;-71
2022/12/11 06:06:16;;;;;;;10.77;5.30;;;;;;;-1.05;72.01;101189.34;6215903;28;20320;-71
2022/12/11 06:09:38;;;;;;;6.43;4.87;;;;;;;-1.09;72.43;101193.03;6221836;28;20353;-71
2022/12/11 06:13:00;;;;;;;7.63;5.87;;;;;;;-1.16;73.52;101191.50;6227114;28;20578;-71
2022/12/11 06:16:22;;;;;;;8.53;6.37;;;;;;;-1.20;72.93;101194.31;6217320;28;20224;-70
2022/12/11 06:19:43;;;;;;;6.90;4.77;;;;;;;-1.05;73.39;101199.91;6207870;28;20256;-71
2022/12/11 06:23:04;;;;;;;8.67;5.97;;;;;;;-0.96;72.87;101204.84;6219139;28;20264;-71
2022/12/11 06:26:27;;;;;;;8.43;4.93;;;;;;;-1.18;73.04;101198.63;6215838;28;20237;-71
2022/12/11 06:29:47;;;;;;;6.70;4.87;;;;;;;-1.43;73.78;101205.69;6218355;28;20657;-70
2022/12/11 06:33:08;;;;;;;7.27;5.57;;;;;;;-1.49;74.12;101194.47;6215819;28;20506;-71
2022/12/11 06:36:29;;;;;;;8.43;5.73;;;;;;;-1.54;74.12;101193.78;6214950;28;20229;-72
2022/12/11 06:39:50;;;;;;;6.70;5.30;;;;;;;-1.53;74.48;101206.06;6215872;28;20232;-71
2022/12/11 06:43:13;;;;;;;7.10;5.00;;;;;;;-1.41;75.15;101200.34;6225763;28;20236;-72
2022/12/11 06:46:34;;;;;;;8.27;4.97;;;;;;;-1.28;74.82;101197.22;6214571;28;20255;-71
2022/12/11 06:49:56;;;;;;;9.90;6.57;;;;;;;-1.36;74.69;101198.41;6215008;28;20221;-70
2022/12/11 06:53:17;;;;;;;7.43;4.63;;;;;;;-1.52;73.72;101202.50;6226663;28;20303;-72
2022/12/11 06:56:37;;;;;;;9.10;5.47;;;;;;;-1.51;74.21;101198.94;6204685;28;20236;-72
2022/12/11 07:00:00;;;;;;;6.37;5.73;;;;;;;-1.48;74.15;101198.84;6200810;28;20233;-71
2022/12/11 07:03:20;;;;;;;11.50;6.87;;;;;;;-1.45;75.21;101212.81;6203032;28;20269;-71
2022/12/11 07:06:41;;;;;;;4.50;4.13;;;;;;;-1.40;74.90;101208.25;6206318;28;20220;-71
2022/12/11 07:10:03;;;;;;;8.60;5.60;;;;;;;-1.61;74.86;101212.44;6205725;28;20233;-71
2022/12/11 07:13:23;;;;;;;8.57;5.13;;;;;;;-1.60;74.69;101221.25;6216470;28;20626;-71
2022/12/11 07:16:46;;;;;;;5.67;4.97;;;;;;;-1.56;75.84;101219.38;6202976;28;20257;-71
2022/12/11 07:20:08;;;;;;;5.77;4.83;;;;;;;-1.51;75.30;101220.06;6204525;28;20613;-71
2022/12/11 07:23:29;;;;;;;8.77;5.97;;;;;;;-1.47;75.59;101229.63;6217520;28;20236;-70
2022/12/11 07:26:50;;;;;;;7.37;6.20;;;;;;;-1.49;76.00;101226.19;6211436;28;20256;-71
2022/12/11 07:30:15;;;;;;;11.63;6.90;;;;;;;-1.60;75.99;101231.81;6211683;28;20689;-71
2022/12/11 07:33:37;;;;;;;6.87;4.23;;;;;;;-1.64;76.49;101243.41;6226305;28;20224;-71
2022/12/11 07:36:58;;;;;;;6.43;4.50;;;;;;;-1.65;76.68;101242.53;6202894;28;20311;-71
2022/12/11 07:40:19;;;;;;;9.73;5.70;;;;;;;-1.63;76.90;101248.63;6200823;28;20241;-71
2022/12/11 07:43:40;;;;;;;7.30;5.10;;;;;;;-1.50;76.81;101248.25;6225082;28;20262;-71
2022/12/11 07:47:01;;;;;;;9.40;6.10;;;;;;;-1.44;75.92;101246.25;6191375;28;22031;-70
2022/12/11 07:50:23;;;;;;;9.87;6.93;;;;;;;-1.37;75.97;101244.25;6214859;28;20340;-70
2022/12/11 07:53:47;;;;;;;9.53;6.33;;;;;;;-1.46;76.17;101250.72;6219187;28;20316;-70
2022/12/11 07:57:09;;;;;;;5.60;4.30;;;;;;;-1.29;76.28;101248.38;6226534;28;20224;-70
2022/12/11 08:00:29;;;;;;;6.40;5.07;;;;;;;-1.22;76.17;101247.25;6216562;28;20244;-71
2022/12/11 08:03:50;;;;;;;10.20;5.77;;;;;;;-1.12;76.14;101250.44;6229799;28;20236;-71
2022/12/11 08:07:12;;;;;;;8.73;5.67;;;;;;;-1.12;75.69;101246.00;6232257;28;20249;-71
2022/12/11 08:10:33;;;;;;;10.87;6.93;;;;;;;-1.12;76.20;101245.13;6212567;28;20233;-71
2022/12/11 08:13:55;;;;;;;8.33;6.20;;;;;;;-1.15;75.60;101235.53;6222331;28;20244;-71
2022/12/11 08:17:15;;;;;;;7.10;6.13;;;;;;;-1.21;75.94;101233.09;6220760;28;20347;-71
2022/12/11 08:20:38;;;;;;;6.23;4.23;;;;;;;-1.19;75.89;101239.19;6209214;28;20236;-70
2022/12/11 08:24:00;;;;;;;9.23;5.20;;;;;;;-1.15;76.54;101246.09;6227345;28;20320;-70
2022/12/11 08:27:21;;;;;;;8.07;5.37;;;;;;;0.63;72.52;101243.56;6227325;28;20229;-71
2022/12/11 08:30:42;;;;;;;11.30;6.60;;;;;;;3.31;62.32;101228.84;6212634;28;20260;-70
2022/12/11 08:34:03;;;;;;;6.80;5.40;;;;;;;4.36;59.41;101224.72;6220736;28;20225;-72
2022/12/11 08:37:24;;;;;;;6.07;4.60;;;;;;;5.84;54.18;101224.50;6226645;28;20224;-71
2022/12/11 08:40:47;;;;;;;7.23;5.30;;;;;;;6.89;50.64;101221.06;6211268;28;20785;-71
2022/12/11 08:44:11;;;;;;;8.67;5.10;;;;;;;6.99;49.13;101214.97;6212416;28;20237;-71
2022/12/11 08:47:32;;;;;;;5.80;4.60;;;;;;;7.42;47.70;101209.31;6207545;28;20221;-72
2022/12/11 08:50:53;;;;;;;9.00;5.73;;;;;;;8.95;45.86;101198.81;6203512;28;22191;-69
2022/12/11 08:54:14;;;;;;;6.23;4.63;;;;;;;9.07;43.63;101206.81;6218327;28;20303;-70
2022/12/11 08:57:38;;;;;;;6.27;4.83;;;;;;;9.35;42.65;101203.66;6227746;28;20232;-70
2022/12/11 09:00:59;;;;;;;4.83;3.40;;;;;;;9.41;42.67;101195.09;6213745;28;20225;-70
2022/12/11 09:04:20;;;;;;;6.73;6.03;;;;;;;9.81;42.06;101194.63;6210279;28;20254;-71
2022/12/11 09:07:41;;;;;;;6.13;5.50;;;;;;;9.86;41.73;101187.91;6222000;28;20511;-72
2022/12/11 09:11:06;;;;;;;8.97;6.27;;;;;;;10.23;40.67;101185.78;6206225;28;20233;-71
2022/12/11 09:14:28;;;;;;;5.27;4.37;;;;;;;10.67;39.59;101185.63;6214959;28;20399;-72
2022/12/11 09:17:49;;;;;;;5.57;4.53;;;;;;;11.31;37.57;101189.06;6203852;28;20225;-70
2022/12/11 09:21:13;;;;;;;6.70;4.50;;;;;;;11.84;36.91;101179.84;6209442;28;20228;-71
2022/12/11 09:24:34;;;;;;;8.43;4.93;;;;;;;13.12;36.16;101190.53;6221909;28;20225;-74
2022/12/11 09:27:54;;;;;;;7.87;6.23;;;;;;;13.19;34.24;101173.56;6234591;28;20232;-74
2022/12/11 09:31:19;;;;;;;6.35;4.45;;;;;;;13.89;34.39;101180.31;6209373;28;20256;-74
2022/12/11 09:34:40;;;;;;;7.07;4.43;;;;;;;14.32;33.45;101167.81;6206238;28;20534;-73
2022/12/11 09:38:01;;;;;;;7.95;5.35;;;;;;;14.22;32.99;101169.72;6217506;28;20232;-74
2022/12/11 09:41:39;;;;;;;5.75;4.43;;;;;;;13.99;31.30;101160.28;6210237;28;20244;-72
2022/12/11 09:45:03;;;;;;;5.20;4.13;;;;;;;12.97;32.39;101145.94;6218630;28;20315;-72
2022/12/11 09:48:26;;;;;;;7.80;5.72;;;;;;;14.08;31.56;101145.78;6236702;28;20224;-72
2022/12/11 09:51:52;;;;;;;5.05;4.53;;;;;;;13.66;31.20;101146.47;6206708;28;20257;-72
2022/12/11 09:55:17;;;;;;;5.45;3.78;;;;;;;14.85;30.34;101148.81;6219116;28;21138;-73
2022/12/11 09:58:47;;;;;;;4.93;4.35;;;;;;;14.17;30.35;101154.88;6231750;28;20327;-73
2022/12/11 10:02:22;;;;;;;5.60;4.32;;;;;;;13.38;31.45;101154.56;6205811;28;20333;-72
2022/12/11 10:05:50;;;;;;;6.22;5.55;;;;;;;14.32;30.85;101153.41;6210256;28;20622;-73
2022/12/11 10:09:26;;;;;;;5.80;4.50;;;;;;;13.88;30.49;101162.31;6204201;28;20455;-72
2022/12/11 10:12:55;;;;;;;5.50;4.85;;;;;;;13.67;29.73;101162.56;6217464;28;20274;-73
2022/12/11 10:16:24;;;;;;;4.70;4.30;;;;;;;14.86;29.61;101153.22;6204933;28;21084;-73
2022/12/11 10:19:45;;;;;;;5.55;4.47;;;;;;;15.36;28.73;101150.72;6206888;28;20224;-71
2022/12/11 10:23:09;;;;;;;5.65;5.03;;;;;;;15.11;27.85;101140.69;6216835;28;20502;-73
2022/12/11 10:26:31;;;;;;;6.03;4.38;;;;;;;15.69;27.45;101140.91;6207729;28;20225;-74
2022/12/11 10:30:00;;;;;;;6.00;4.15;;;;;;;15.12;27.97;101142.41;6201930;28;20233;-71
2022/12/11 10:33:23;;;;;;;5.30;4.35;;;;;;;15.97;27.15;101143.25;6216393;28;20259;-72
2022/12/11 10:36:44;;;;;;;5.05;4.32;;;;;;;15.42;26.99;101131.06;6206006;28;20233;-72
2022/12/11 10:40:07;;;;;;;5.32;4.13;;;;;;;15.46;28.02;101124.31;6207330;28;20803;-72
2022/12/11 10:43:36;;;;;;;6.22;4.95;;;;;;;14.45;28.31;101120.47;6218757;28;21188;-72
2022/12/11 10:47:05;;;;;;;5.07;3.63;;;;;;;14.50;28.54;101121.69;6202019;28;20227;-73
2022/12/11 10:50:26;;;;;;;5.95;3.80;;;;;;;15.06;27.54;101111.28;6209579;28;20220;-71
2022/12/11 10:53:50;;;;;;;4.88;3.97;;;;;;;15.38;27.22;101110.66;6215236;28;20327;-72
2022/12/11 10:57:15;;;;;;;4.00;3.63;;;;;;;13.88;28.03;101110.81;6219675;28;20228;-72
2022/12/11 11:00:38;;;;;;;5.38;4.38;;;;;;;13.12;30.05;101123.69;6199015;28;20232;-72
2022/12/11 11:04:04;;;;;;;5.65;4.05;;;;;;;13.54;29.87;101116.00;6223447;28;20229;-72
2022/12/11 11:07:27;;;;;;;4.82;4.05;;;;;;;15.30;27.19;101110.63;6223505;28;20241;-72
2022/12/11 11:10:53;;;;;;;5.90;4.45;;;;;;;15.87;26.26;101115.31;6206731;28;20668;-73
2022/12/11 11:14:17;;;;;;;5.53;3.97;;;;;;;15.81;26.73;101118.69;6211592;28;20253;-72
2022/12/11 11:17:43;;;;;;;8.05;5.07;;;;;;;14.39;27.82;101117.34;6214748;28;20233;-73
2022/12/11 11:21:05;;;;;;;5.15;4.40;;;;;;;15.21;27.43;101114.28;6198488;28;20252;-73
2022/12/11 11:24:33;;;;;;;6.28;5.25;;;;;;;14.61;28.08;101116.03;6208244;28;20244;-73
2022/12/11 11:27:56;;;;;;;4.53;3.97;;;;;;;13.76;29.36;101103.91;6207369;28;20227;-72
2022/12/11 11:31:20;;;;;;;4.72;4.25;;;;;;;15.40;28.10;101100.47;6191953;28;20313;-72
2022/12/11 11:34:42;;;;;;;6.25;5.30;;;;;;;16.02;26.82;101099.22;6201022;28;20233;-72
2022/12/11 11:38:13;;;;;;;4.35;3.95;;;;;;;15.41;27.21;101088.59;6208704;28;20228;-73
2022/12/11 11:41:40;;;;;;;4.57;4.03;;;;;;;16.26;26.17;101091.13;6197777;28;20526;-73
2022/12/11 11:45:06;;;;;;;7.78;4.90;;;;;;;15.54;26.97;101085.47;6201187;28;20224;-73
2022/12/11 11:48:38;;;;;;;5.60;3.92;;;;;;;13.02;30.75;101082.22;6219508;28;20236;-72
2022/12/11 11:52:08;;;;;;;7.13;4.15;;;;;;;13.98;29.65;101069.09;6210149;28;20252;-72
2022/12/11 11:55:41;;;;;;;6.78;4.32;;;;;;;15.80;26.72;101064.50;6206281;28;20760;-72
2022/12/11 11:59:11;;;;;;;5.68;5.15;;;;;;;15.24;26.86;101065.09;6212006;28;20224;-71
2022/12/11 12:02:32;;;;;;;6.03;4.53;;;;;;;13.97;27.77;101070.13;6214958;28;20237;-73
2022/12/11 12:06:02;;;;;;;6.97;5.18;;;;;;;14.90;27.63;101067.75;6215489;28;20244;-69
2022/12/11 12:09:36;;;;;;;5.93;5.25;;;;;;;14.91;28.26;101065.91;6209467;28;20770;-71
2022/12/11 12:13:03;;;;;;;4.60;4.10;;;;;;;14.85;28.44;101063.81;6220447;28;20268;-71
2022/12/11 12:16:38;;;;;;;5.32;4.63;;;;;;;13.12;30.54;101074.13;6212463;28;20498;-71
2022/12/11 12:20:11;;;;;;;5.93;4.88;;;;;;;10.12;36.10;101081.59;6199278;28;20855;-71
2022/12/11 12:23:53;;;;;;;6.70;5.80;;;;;;;10.82;34.80;101073.75;6223266;28;20577;-72
2022/12/11 12:27:19;;;;;;;6.03;4.90;;;;;;;11.15;35.04;101078.91;6227553;28;20236;-72
2022/12/11 12:30:50;;;;;;;8.73;4.50;;;;;;;9.50;36.87;101083.19;6217030;28;20799;-70
2022/12/11 12:34:22;;;;;;;6.13;4.93;;;;;;;9.58;37.20;101089.66;6218693;28;20605;-70
2022/12/11 12:37:52;;;;;;;5.80;5.30;;;;;;;9.23;37.58;101091.66;6229284;28;20319;-71
2022/12/11 12:41:20;;;;;;;7.60;5.70;;;;;;;7.82;40.62;101088.28;6212841;28;20260;-71
2022/12/11 12:44:53;;;;;;;5.13;4.67;;;;;;;7.11;42.20;101092.66;6210520;28;20310;-70
2022/12/11 12:48:14;;;;;;;5.57;4.67;;;;;;;6.79;43.74;101094.06;6213788;28;20255;-71
2022/12/11 12:51:36;;;;;;;6.17;5.07;;;;;;;8.53;40.40;101087.41;6201068;28;20618;-72
2022/12/11 12:55:17;;;;;;;9.30;6.40;;;;;;;9.01;39.19;101088.94;6202539;28;20232;-71
2022/12/11 12:58:43;;;;;;;6.80;6.10;;;;;;;11.18;35.38;101075.09;6191816;28;20638;-72
2022/12/11 13:02:05;;;;;;;7.40;4.77;;;;;;;10.16;36.39;101079.50;6188018;28;20529;-70
2022/12/11 13:05:29;;;;;;;5.43;4.10;;;;;;;9.23;37.97;101082.72;6211365;28;20913;-72
2022/12/11 13:08:51;;;;;;;5.70;4.97;;;;;;;7.92;41.35;101089.34;6218934;28;20233;-70
2022/12/11 13:12:14;;;;;;;6.13;4.63;;;;;;;6.26;44.37;101093.22;6195198;28;20323;-72
2022/12/11 13:15:39;;;;;;;6.73;5.23;;;;;;;5.71;46.72;101091.63;6208302;28;20320;-71
2022/12/11 13:19:00;;;;;;;7.43;5.93;;;;;;;5.26;48.05;101093.63;6220494;28;20311;-71
2022/12/11 13:22:23;;;;;;;5.70;5.00;;;;;;;4.75;49.97;101096.88;6209457;28;20229;-70
2022/12/11 13:25:51;;;;;;;8.07;5.30;;;;;;;3.84;51.43;101102.31;6206904;28;20497;-71
2022/12/11 13:29:32;;;;;;;5.97;4.77;;;;;;;3.50;52.66;101102.53;6202514;28;20315;-72
2022/12/11 13:33:05;;;;;;;7.37;5.57;;;;;;;4.35;52.15;101098.44;6208074;28;20242;-71
2022/12/11 13:36:31;;;;;;;6.17;5.40;;;;;;;4.44;50.04;101105.03;6202178;28;20514;-71
2022/12/11 13:39:52;;;;;;;7.43;6.00;;;;;;;4.72;50.02;101097.91;6210931;28;20228;-70
2022/12/11 13:43:20;;;;;;;7.10;4.83;;;;;;;4.62;50.60;101102.09;6224940;28;20573;-75
2022/12/11 13:46:41;;;;;;;11.17;6.30;;;;;;;3.35;54.13;101108.72;6216066;28;20609;-73
2022/12/11 13:50:15;;;;;;;4.60;4.20;;;;;;;3.10;53.49;101109.22;6220564;28;20232;-74
2022/12/11 13:53:37;;;;;;;8.87;6.07;;;;;;;3.28;54.20;101117.09;6214160;28;20317;-73
2022/12/11 13:57:01;;;;;;;6.73;4.70;;;;;;;3.05;54.79;101111.25;6214559;28;20577;-73
2022/12/11 14:00:25;;;;;;;8.87;5.27;;;;;;;3.10;54.75;101111.00;6204262;28;20652;-69
2022/12/11 14:03:53;;;;;;;6.30;4.27;;;;;;;3.42;53.98;101103.91;6208343;28;20275;-68
2022/12/11 14:07:23;;;;;;;8.03;6.57;;;;;;;3.17;54.62;101096.41;6210301;28;20239;-71
2022/12/11 14:10:44;;;;;;;8.33;4.60;;;;;;;1.97;58.91;101101.88;6197824;28;20228;-70
2022/12/11 14:14:08;;;;;;;12.47;7.07;;;;;;;2.22;59.01;101099.72;6219744;28;20676;-70
2022/12/11 14:17:31;;;;;;;7.50;5.20;;;;;;;2.76;57.45;101098.63;6229620;28;20327;-70
2022/12/11 14:20:55;;;;;;;10.23;4.83;;;;;;;3.01;56.71;101109.69;6221776;28;20236;-70
2022/12/11 14:24:17;;;;;;;8.07;5.67;;;;;;;2.07;59.41;101120.88;6222533;28;20228;-70
2022/12/11 14:27:47;;;;;;;10.83;5.83;;;;;;;2.19;58.86;101121.13;6231258;28;20335;-71
2022/12/11 14:31:14;;;;;;;7.40;4.80;;;;;;;2.29;59.29;101110.91;6218832;28;20304;-71
2022/12/11 14:34:37;;;;;;;8.43;5.57;;;;;;;3.08;57.44;101116.41;6222242;28;20232;-70
2022/12/11 14:38:02;;;;;;;12.40;6.23;;;;;;;2.59;58.36;101117.28;6230669;28;20228;-71
2022/12/11 14:41:35;;;;;;;8.50;4.90;;;;;;;2.93;57.45;101119.91;6222703;28;20220;-70
2022/12/11 14:45:00;;;;;;;8.53;5.53;;;;;;;2.88;58.07;101123.75;6219120;28;20647;-71
2022/12/11 14:48:24;;;;;;;7.30;5.63;;;;;;;3.33;56.85;101131.06;6233292;28;20225;-70
2022/12/11 14:51:46;;;;;;;15.40;6.17;;;;;;;3.50;56.64;101115.00;6221562;28;20615;-71
2022/12/11 14:55:10;;;;;;;8.13;6.37;;;;;;;3.07;56.98;101112.03;6216488;28;20312;-71
2022/12/11 14:58:37;;;;;;;7.10;5.03;;;;;;;2.90;57.93;101119.22;6232276;28;20237;-72
2022/12/11 15:02:01;;;;;;;7.17;5.07;;;;;;;2.54;59.00;101123.78;6215252;28;20256;-71
2022/12/11 15:05:23;;;;;;;6.60;4.77;;;;;;;2.81;58.66;101130.34;6199851;28;20229;-71
2022/12/11 15:08:45;;;;;;;10.93;4.83;;;;;;;3.04;57.98;101120.19;6213599;28;20232;-71
2022/12/11 15:12:12;;;;;;;9.73;5.20;;;;;;;3.13;57.83;101122.34;6208446;28;20228;-72
2022/12/11 15:15:45;;;;;;;6.77;4.57;;;;;;;3.05;58.40;101129.88;6201705;28;20264;-71
2022/12/11 15:19:05;;;;;;;11.47;6.50;;;;;;;2.85;58.72;101122.13;6207732;28;20268;-71
2022/12/11 15:22:31;;;;;;;4.87;4.07;;;;;;;2.51;60.01;101132.78;6204747;28;20323;-71
2022/12/11 15:25:54;;;;;;;8.10;5.87;;;;;;;2.12;60.97;101126.84;6208050;28;20227;-71
2022/12/11 15:29:26;;;;;;;7.27;5.57;;;;;;;1.33;64.02;101128.06;6204037;28;20259;-72
2022/12/11 15:32:48;;;;;;;22.20;9.53;;;;;;;1.19;64.86;101127.81;6214557;28;20240;-71
2022/12/11 15:36:24;;;;;;;6.57;4.93;;;;;;;1.27;65.26;101125.66;6204470;28;20658;-72
2022/12/11 15:39:45;;;;;;;8.53;5.77;;;;;;;0.98;65.83;101127.97;6206472;28;20232;-72
2022/12/11 15:43:06;;;;;;;10.97;6.97;;;;;;;1.32;64.91;101128.97;6212560;28;21216;-71
2022/12/11 15:46:27;;;;;;;9.83;5.43;;;;;;;2.05;62.71;101125.41;6205216;28;20264;-71
2022/12/11 15:49:49;;;;;;;8.33;5.93;;;;;;;2.41;61.71;101118.25;6190554;28;20319;-71
2022/12/11 15:53:10;;;;;;;7.80;5.73;;;;;;;2.60;61.21;101118.16;6218938;28;20233;-71
2022/12/11 15:56:31;;;;;;;8.53;5.70;;;;;;;2.60;60.63;101111.03;6213782;28;20331;-71
2022/12/11 15:59:55;;;;;;;10.00;6.63;;;;;;;2.50;61.59;101109.81;6212730;28;20229;-71
2022/12/11 16:03:17;;;;;;;9.70;5.83;;;;;;;2.59;61.10;101103.97;6220609;28;20629;-72
2022/12/11 16:06:44;;;;;;;8.47;4.50;;;;;;;2.62;60.78;101111.81;6214077;28;20229;-71